Time;durP1;ratioP1;P1;durP2;ratioP2;P2;SDS_P1;SDS_P2;PMS_P1;PMS_P2;Temp;Humidity;BMP_temperature;BMP_pressure;BME280_temperature;BME280_humidity;BME280_pressure;Samples;Min_cycle;Max_cycle;Signal;HPM_P1;HPM_P2
2022/05/01 00:00:17;;;;;;;11.45;8.93;;;;;;;8.99;56.70;101756.44;682481;28;1205;-80
2022/05/01 00:00:37;;;;;;;11.50;8.90;;;;;;;9.05;56.20;101767.13;688191;28;796;-81
2022/05/01 00:00:58;;;;;;;12.18;9.00;;;;;;;9.01;56.56;101764.28;689743;28;1146;-81
2022/05/01 00:01:19;;;;;;;12.40;8.73;;;;;;;9.03;56.46;101773.97;688080;28;972;-81
2022/05/01 00:01:39;;;;;;;13.10;9.15;;;;;;;9.05;56.44;101767.13;686804;28;1361;-81
2022/05/01 00:02:00;;;;;;;14.15;9.25;;;;;;;9.01;56.43;101765.19;688065;28;1105;-81
2022/05/01 00:02:20;;;;;;;12.98;8.88;;;;;;;8.93;56.30;101758.72;688002;28;1421;-81
2022/05/01 00:02:41;;;;;;;11.43;8.43;;;;;;;9.01;56.67;101770.41;688158;28;1210;-81
2022/05/01 00:03:02;;;;;;;11.73;8.68;;;;;;;8.93;56.61;101755.22;687441;28;1327;-82
2022/05/01 00:03:31;;;;;;;11.80;9.10;;;;;;;8.94;56.43;101762.19;693480;28;740;-81
2022/05/01 00:03:52;;;;;;;13.32;9.25;;;;;;;8.91;56.49;101757.75;690646;28;1969;-81
2022/05/01 00:04:12;;;;;;;13.02;8.70;;;;;;;8.88;56.53;101753.28;695427;28;1373;-81
2022/05/01 00:04:34;;;;;;;18.73;9.18;;;;;;;8.92;56.46;101759.53;688147;28;952;-81
2022/05/01 00:04:55;;;;;;;18.75;8.93;;;;;;;8.88;56.51;101758.50;693599;28;776;-81
2022/05/01 00:05:16;;;;;;;18.08;9.25;;;;;;;8.84;56.50;101753.03;693248;28;1182;-81
2022/05/01 00:05:37;;;;;;;12.93;9.00;;;;;;;8.93;56.33;101766.53;693521;28;1188;-81
2022/05/01 00:05:59;;;;;;;12.18;9.35;;;;;;;8.83;56.35;101756.47;690830;28;787;-81
2022/05/01 00:06:19;;;;;;;11.70;9.10;;;;;;;8.85;56.58;101755.72;695613;28;1354;-81
2022/05/01 00:06:40;;;;;;;11.32;9.10;;;;;;;8.87;56.46;101755.78;695563;28;1085;-81
2022/05/01 00:07:00;;;;;;;12.13;8.80;;;;;;;8.85;56.33;101747.91;690680;28;1125;-81
2022/05/01 00:07:21;;;;;;;12.45;8.90;;;;;;;8.83;56.72;101753.88;685358;28;1278;-82
2022/05/01 00:07:43;;;;;;;12.73;8.48;;;;;;;8.84;56.46;101755.66;690744;28;1093;-81
2022/05/01 00:08:04;;;;;;;12.63;8.68;;;;;;;8.83;56.58;101754.75;687894;28;1315;-81
2022/05/01 00:08:24;;;;;;;13.38;8.63;;;;;;;8.87;56.60;101758.41;693520;28;1245;-81
2022/05/01 00:08:45;;;;;;;12.68;8.90;;;;;;;8.82;56.94;101742.53;688091;28;1274;-81
2022/05/01 00:09:06;;;;;;;12.05;9.10;;;;;;;8.88;56.67;101761.09;690640;28;1084;-81
2022/05/01 00:09:26;;;;;;;10.90;8.98;;;;;;;8.89;56.72;101767.16;690430;28;1264;-81
2022/05/01 00:09:47;;;;;;;10.80;8.93;;;;;;;8.83;56.69;101751.25;690288;28;1252;-81
2022/05/01 00:10:09;;;;;;;10.85;8.65;;;;;;;8.83;56.79;101753.88;690555;28;1182;-81
2022/05/01 00:10:30;;;;;;;11.65;8.98;;;;;;;8.83;56.94;101748.66;693503;28;1479;-81
2022/05/01 00:10:50;;;;;;;12.10;9.10;;;;;;;8.94;56.62;101768.31;693486;28;811;-81
2022/05/01 00:11:13;;;;;;;12.00;9.40;;;;;;;8.96;56.97;101768.41;682483;28;1156;-81
2022/05/01 00:11:33;;;;;;;13.05;9.43;;;;;;;8.89;56.88;101752.47;687348;28;1054;-80
2022/05/01 00:11:54;;;;;;;13.90;9.27;;;;;;;8.93;56.49;101760.41;688148;28;787;-81
2022/05/01 00:12:15;;;;;;;13.98;9.20;;;;;;;8.99;56.54;101772.06;690643;28;1244;-81
2022/05/01 00:12:35;;;;;;;13.40;9.60;;;;;;;8.95;56.57;101764.88;693541;28;804;-83
2022/05/01 00:12:56;;;;;;;12.60;9.77;;;;;;;8.95;56.52;101754.47;690740;28;1290;-84
2022/05/01 00:13:17;;;;;;;11.75;9.23;;;;;;;8.99;56.63;101761.63;693431;28;1075;-81
2022/05/01 00:13:39;;;;;;;11.02;8.60;;;;;;;8.98;56.85;101765.03;696212;28;1212;-82
2022/05/01 00:14:00;;;;;;;12.55;8.57;;;;;;;8.94;56.85;101751.78;690663;28;1229;-81
2022/05/01 00:14:20;;;;;;;13.18;8.98;;;;;;;8.90;56.75;101748.13;690613;28;1193;-81
2022/05/01 00:14:41;;;;;;;13.05;9.38;;;;;;;8.90;56.82;101750.72;693510;28;1304;-81
2022/05/01 00:15:03;;;;;;;11.37;8.63;;;;;;;8.89;56.73;101746.34;696054;28;1118;-82
2022/05/01 00:15:24;;;;;;;11.32;8.70;;;;;;;8.89;56.80;101754.16;696324;28;807;-80
2022/05/01 00:15:45;;;;;;;11.10;8.60;;;;;;;8.85;56.59;101750.50;688092;28;1380;-81
2022/05/01 00:16:05;;;;;;;11.20;9.00;;;;;;;8.83;56.89;101748.66;685264;28;1201;-81
2022/05/01 00:16:26;;;;;;;12.15;9.00;;;;;;;8.84;56.80;101753.03;690625;28;1313;-81
2022/05/01 00:16:49;;;;;;;12.15;8.80;;;;;;;8.80;56.70;101757.19;696295;28;775;-81
2022/05/01 00:17:09;;;;;;;13.05;8.70;;;;;;;8.79;56.73;101751.91;693166;28;1094;-81
2022/05/01 00:17:30;;;;;;;16.83;8.87;;;;;;;8.73;56.84;101748.16;688103;28;808;-81
2022/05/01 00:17:52;;;;;;;17.10;8.82;;;;;;;8.72;56.91;101741.19;685397;28;1302;-81
2022/05/01 00:18:13;;;;;;;16.70;8.90;;;;;;;8.72;57.09;101745.50;687968;28;1107;-81
2022/05/01 00:18:34;;;;;;;15.43;8.95;;;;;;;8.76;56.80;101763.97;695800;28;1191;-81
2022/05/01 00:18:55;;;;;;;16.75;9.32;;;;;;;8.62;57.07;101744.13;693547;28;910;-81
2022/05/01 00:19:16;;;;;;;16.87;8.63;;;;;;;8.61;57.28;101748.38;690638;28;1073;-81
2022/05/01 00:19:37;;;;;;;14.23;8.70;;;;;;;8.67;57.17;101763.50;690277;28;1318;-81
2022/05/01 00:19:57;;;;;;;13.13;8.70;;;;;;;8.63;57.41;101759.84;690819;28;913;-81
2022/05/01 00:20:18;;;;;;;11.77;8.87;;;;;;;8.57;57.04;101748.16;696142;28;1165;-81
2022/05/01 00:20:39;;;;;;;11.53;8.70;;;;;;;8.58;57.03;101755.16;696256;28;960;-84
2022/05/01 00:20:59;;;;;;;11.32;8.60;;;;;;;8.52;57.07;101745.31;696154;28;1177;-84
2022/05/01 00:21:21;;;;;;;13.50;8.70;;;;;;;8.54;57.30;101755.81;693404;28;1169;-84
2022/05/01 00:21:41;;;;;;;12.80;8.50;;;;;;;8.56;57.28;101757.69;696174;28;1216;-84
2022/05/01 00:22:02;;;;;;;12.80;8.45;;;;;;;8.49;57.00;101753.84;693286;28;1160;-84
2022/05/01 00:22:23;;;;;;;10.82;8.35;;;;;;;8.56;57.21;101761.97;690788;28;800;-84
2022/05/01 00:22:44;;;;;;;11.60;8.90;;;;;;;8.46;57.28;101750.19;690710;28;1311;-84
2022/05/01 00:23:05;;;;;;;12.98;9.38;;;;;;;8.53;57.59;101760.13;690557;28;1083;-83
2022/05/01 00:23:25;;;;;;;13.10;9.57;;;;;;;8.52;57.36;101754.84;690327;28;1262;-83
2022/05/01 00:23:46;;;;;;;13.13;9.45;;;;;;;8.45;57.33;101746.72;688121;28;764;-84
2022/05/01 00:24:07;;;;;;;11.77;9.07;;;;;;;8.52;57.35;101754.84;693267;28;1906;-84
2022/05/01 00:24:28;;;;;;;13.68;9.13;;;;;;;8.41;57.52;101739.56;687622;28;1205;-84
2022/05/01 00:24:49;;;;;;;13.98;9.15;;;;;;;8.48;57.26;101757.28;693461;28;815;-84
2022/05/01 00:25:09;;;;;;;15.15;9.30;;;;;;;8.45;57.38;101749.31;693302;28;1203;-83
2022/05/01 00:25:32;;;;;;;12.80;8.90;;;;;;;8.46;57.55;101756.31;688026;28;1263;-84
2022/05/01 00:25:53;;;;;;;12.32;8.40;;;;;;;8.43;57.46;101744.84;690758;28;768;-85
2022/05/01 00:26:13;;;;;;;11.00;8.27;;;;;;;8.38;58.04;101743.69;693241;28;1198;-83
2022/05/01 00:26:34;;;;;;;11.13;8.47;;;;;;;8.37;57.89;101748.03;693455;28;1253;-83
2022/05/01 00:26:55;;;;;;;12.90;8.80;;;;;;;8.40;57.88;101748.16;688042;28;849;-83
2022/05/01 00:27:17;;;;;;;14.20;9.60;;;;;;;8.34;57.95;101740.94;690595;28;1169;-84
2022/05/01 00:27:37;;;;;;;14.02;9.75;;;;;;;8.38;57.57;101755.00;690422;28;1215;-84
2022/05/01 00:27:58;;;;;;;12.95;9.20;;;;;;;8.36;57.69;101747.13;682868;28;1057;-83
2022/05/01 00:28:19;;;;;;;12.47;8.97;;;;;;;8.34;57.80;101742.63;690596;28;1255;-84
2022/05/01 00:28:40;;;;;;;11.80;8.50;;;;;;;8.32;58.02;101741.66;696223;28;1158;-84
2022/05/01 00:29:01;;;;;;;11.37;8.47;;;;;;;8.35;57.83;101747.03;693265;28;1327;-84
2022/05/01 00:29:24;;;;;;;11.38;8.30;;;;;;;8.38;58.09;101764.50;693447;28;1112;-83
2022/05/01 00:29:44;;;;;;;11.98;9.07;;;;;;;8.29;57.66;101750.19;693104;28;1033;-84
2022/05/01 00:30:06;;;;;;;12.77;9.10;;;;;;;8.32;57.70;101752.06;690574;28;1161;-83
2022/05/01 00:30:26;;;;;;;13.38;9.05;;;;;;;8.26;57.99;101747.44;696093;28;1111;-84
2022/05/01 00:30:47;;;;;;;12.82;8.50;;;;;;;8.29;57.94;101749.31;693469;28;1320;-83
2022/05/01 00:31:08;;;;;;;11.95;8.40;;;;;;;8.30;58.27;101761.50;690452;28;1324;-83
2022/05/01 00:31:29;;;;;;;14.50;8.82;;;;;;;8.23;58.02;101752.47;690704;28;1285;-84
2022/05/01 00:31:50;;;;;;;14.00;8.98;;;;;;;8.25;57.92;101755.16;685299;28;1067;-83
2022/05/01 00:32:10;;;;;;;14.30;8.77;;;;;;;8.30;58.00;101764.13;690100;28;1181;-83
2022/05/01 00:36:25;;;;;;;12.17;8.60;;;;;;;8.18;57.70;101736.63;690702;28;1244;-84
2022/05/01 00:36:28;;;;;;;13.70;8.95;;;;;;;8.17;58.46;101746.97;695726;28;1389;-83
2022/05/01 00:36:50;;;;;;;15.18;8.65;;;;;;;8.19;58.33;101747.94;693463;28;779;-84
2022/05/01 00:37:10;;;;;;;14.50;8.50;;;;;;;8.15;58.12;101746.88;692886;28;1108;-83
2022/05/01 00:37:31;;;;;;;14.25;8.85;;;;;;;8.21;58.78;101754.09;687555;28;1213;-83
2022/05/01 00:37:52;;;;;;;14.80;9.70;;;;;;;8.16;58.55;101743.44;687835;28;732;-83
2022/05/01 00:38:12;;;;;;;14.07;9.80;;;;;;;8.23;58.42;101758.56;693289;28;1179;-82
2022/05/01 00:38:34;;;;;;;14.13;9.50;;;;;;;8.19;58.73;101756.63;688018;28;1257;-83
2022/05/01 00:39:01;;;;;;;13.02;9.25;;;;;;;8.28;58.27;101764.03;690644;28;1213;-83
2022/05/01 00:39:22;;;;;;;12.98;8.95;;;;;;;8.22;58.43;101763.69;682582;29;1379;-84
2022/05/01 00:39:42;;;;;;;13.60;9.05;;;;;;;8.15;58.67;101741.66;687410;28;874;-83
2022/05/01 00:40:04;;;;;;;13.63;9.05;;;;;;;8.17;58.54;101754.75;688101;28;1033;-83
2022/05/01 00:40:24;;;;;;;13.40;9.10;;;;;;;8.19;58.29;101753.13;693435;28;1288;-83
2022/05/01 00:40:45;;;;;;;11.93;8.70;;;;;;;8.16;58.56;101753.84;693474;28;842;-83
2022/05/01 00:41:11;;;;;;;12.02;8.40;;;;;;;8.21;59.06;101768.00;690714;28;1141;-83
2022/05/01 00:41:33;;;;;;;11.60;8.45;;;;;;;8.16;58.62;101761.66;693266;28;1337;-83
2022/05/01 00:41:54;;;;;;;15.27;8.60;;;;;;;8.15;58.55;101756.38;698463;28;1258;-83
2022/05/01 00:42:18;;;;;;;15.37;8.60;;;;;;;8.09;58.71;101756.94;696072;28;1011;-84
2022/05/01 00:42:39;;;;;;;14.82;8.50;;;;;;;8.09;58.71;101756.94;696102;28;819;-83
2022/05/01 00:43:04;;;;;;;12.20;8.77;;;;;;;8.11;58.79;101765.69;690725;28;1074;-83
2022/05/01 00:43:25;;;;;;;12.23;8.90;;;;;;;8.00;59.16;101735.66;687992;28;1226;-83
2022/05/01 00:44:09;;;;;;;11.80;8.98;;;;;;;8.06;58.92;101760.25;696168;28;1243;-84
2022/05/01 00:44:29;;;;;;;11.15;8.40;;;;;;;8.00;58.58;101746.94;690590;28;928;-83
2022/05/01 00:44:51;;;;;;;12.00;8.30;;;;;;;8.02;58.96;101754.81;690590;28;1371;-84
2022/05/01 00:45:11;;;;;;;12.40;8.85;;;;;;;7.96;59.13;101744.97;693292;28;1150;-83
2022/05/01 00:45:33;;;;;;;13.30;9.40;;;;;;;8.04;58.86;101764.47;693385;28;1239;-83
2022/05/01 00:45:54;;;;;;;12.93;9.25;;;;;;;7.95;59.00;101751.00;693347;28;815;-83
2022/05/01 00:46:14;;;;;;;12.70;9.00;;;;;;;7.96;58.81;101747.56;690552;28;1108;-83
2022/05/01 00:46:42;;;;;;;14.55;8.48;;;;;;;7.93;58.89;101744.81;690600;28;791;-83
2022/05/01 00:47:03;;;;;;;14.57;8.40;;;;;;;7.91;59.13;101752.53;693082;28;1130;-83
2022/05/01 00:47:23;;;;;;;12.75;8.10;;;;;;;8.01;59.05;101763.44;699038;28;756;-83
2022/05/01 00:47:44;;;;;;;11.90;8.40;;;;;;;7.88;59.15;101744.56;687900;28;1196;-83
2022/05/01 00:48:05;;;;;;;12.57;8.73;;;;;;;7.89;59.18;101750.66;693164;28;1175;-83
2022/05/01 00:48:25;;;;;;;12.95;8.90;;;;;;;7.89;58.69;101755.84;692440;28;1763;-84
2022/05/01 00:48:46;;;;;;;13.27;9.20;;;;;;;7.88;59.23;101757.56;687961;28;1289;-83
2022/05/01 00:49:12;;;;;;;12.13;9.20;;;;;;;7.92;58.96;101759.50;690532;28;918;-84
2022/05/01 00:49:32;;;;;;;12.80;8.88;;;;;;;7.79;59.31;101741.44;689459;28;1213;-83
2022/05/01 00:49:53;;;;;;;11.73;8.17;;;;;;;7.86;59.18;101761.78;693304;28;832;-84
2022/05/01 00:50:16;;;;;;;12.18;8.23;;;;;;;7.79;59.38;101746.66;693334;28;1039;-83
2022/05/01 00:50:37;;;;;;;10.88;8.43;;;;;;;7.86;59.56;101768.69;692293;28;1158;-83
2022/05/01 00:50:57;;;;;;;12.27;8.93;;;;;;;7.80;59.24;101759.72;690648;28;1295;-83
2022/05/01 00:51:22;;;;;;;12.63;9.23;;;;;;;7.79;59.32;101762.22;690630;28;1178;-83
2022/05/01 00:51:57;;;;;;;12.88;9.27;;;;;;;7.83;59.17;101769.41;685320;28;1253;-83
2022/05/01 00:52:19;;;;;;;14.10;9.00;;;;;;;7.80;59.35;101774.44;690467;28;1217;-83
2022/05/01 00:52:40;;;;;;;13.75;8.55;;;;;;;7.65;59.34;101746.78;690839;28;870;-84
2022/05/01 00:53:05;;;;;;;12.40;8.60;;;;;;;7.70;59.46;101752.25;687843;28;1261;-84
2022/05/01 00:53:25;;;;;;;12.90;8.95;;;;;;;7.66;59.38;101751.19;688045;28;756;-84
2022/05/01 00:53:48;;;;;;;13.35;9.40;;;;;;;7.67;59.55;101755.56;682667;28;808;-83
2022/05/01 00:54:10;;;;;;;12.98;9.40;;;;;;;7.70;59.50;101757.44;682527;29;1252;-83
2022/05/01 00:54:32;;;;;;;13.82;9.35;;;;;;;7.71;59.56;101758.31;685200;28;1111;-83
2022/05/01 00:54:53;;;;;;;14.95;9.60;;;;;;;7.71;59.62;101767.03;685350;28;784;-84
2022/05/01 00:55:13;;;;;;;16.70;9.50;;;;;;;7.68;59.72;101759.94;685056;28;1295;-83
2022/05/01 00:55:36;;;;;;;14.85;9.43;;;;;;;7.64;59.37;101752.81;682639;29;1446;-83
2022/05/01 00:55:56;;;;;;;14.20;9.45;;;;;;;7.74;59.61;101771.50;682744;28;1159;-83
2022/05/01 00:56:18;;;;;;;16.57;9.60;;;;;;;7.73;59.42;101773.19;687551;28;1260;-83
2022/05/01 00:56:41;;;;;;;18.42;9.30;;;;;;;7.66;59.45;101756.38;685270;28;1272;-83
2022/05/01 00:57:03;;;;;;;15.90;8.52;;;;;;;7.61;59.29;101750.00;687862;28;1187;-83
2022/05/01 00:57:25;;;;;;;13.05;8.43;;;;;;;7.70;59.53;101766.94;685355;28;835;-84
2022/05/01 00:57:49;;;;;;;12.05;8.55;;;;;;;7.59;59.58;101748.13;685227;28;1410;-83
2022/05/01 00:58:09;;;;;;;12.55;9.13;;;;;;;7.70;59.82;101764.31;685146;28;1163;-84
2022/05/01 00:58:30;;;;;;;12.30;9.05;;;;;;;7.66;59.74;101758.06;685255;28;1074;-83
2022/05/01 00:58:51;;;;;;;13.70;9.10;;;;;;;7.71;59.36;101771.31;687921;28;1015;-84
2022/05/01 00:59:12;;;;;;;13.50;9.20;;;;;;;7.57;59.45;101753.25;684709;28;1341;-83
2022/05/01 00:59:35;;;;;;;13.40;9.30;;;;;;;7.64;59.90;101758.00;684763;28;839;-83
2022/05/01 00:59:55;;;;;;;12.18;9.40;;;;;;;7.56;59.96;101751.47;685031;28;1182;-83
2022/05/01 01:00:18;;;;;;;13.32;9.30;;;;;;;7.68;59.98;101770.34;685203;28;1070;-85
2022/05/01 01:00:39;;;;;;;13.88;9.13;;;;;;;7.59;59.81;101745.53;687942;28;859;-83
2022/05/01 01:01:00;;;;;;;13.93;9.13;;;;;;;7.66;60.07;101761.56;690623;28;1076;-83
2022/05/01 01:01:20;;;;;;;12.10;9.13;;;;;;;7.56;60.02;101748.88;690386;28;1253;-83
2022/05/01 01:01:42;;;;;;;13.98;9.40;;;;;;;7.63;59.86;101761.38;689639;28;1356;-83
2022/05/01 01:02:04;;;;;;;13.45;9.35;;;;;;;7.63;60.02;101763.97;687895;28;1078;-83
2022/05/01 01:02:24;;;;;;;13.70;9.07;;;;;;;7.57;59.95;101753.25;693479;28;1232;-83
2022/05/01 01:02:46;;;;;;;15.00;8.87;;;;;;;7.57;59.70;101752.34;690523;28;1264;-84
2022/05/01 01:03:07;;;;;;;15.75;8.75;;;;;;;7.54;60.28;101753.06;687810;28;1074;-83
2022/05/01 01:03:28;;;;;;;16.03;8.90;;;;;;;7.53;59.52;101753.88;687972;28;787;-83
2022/05/01 01:03:51;;;;;;;12.45;8.90;;;;;;;7.54;59.82;101759.19;690468;28;1262;-83
2022/05/01 01:04:12;;;;;;;13.93;9.00;;;;;;;7.52;59.81;101758.22;692821;28;1794;-84
2022/05/01 01:04:33;;;;;;;13.43;8.90;;;;;;;7.57;60.39;101763.66;690687;28;1212;-84
2022/05/01 01:04:54;;;;;;;14.20;8.60;;;;;;;7.50;59.93;101754.59;682589;29;1299;-83
2022/05/01 01:05:14;;;;;;;13.20;8.65;;;;;;;7.56;60.18;101764.47;687887;28;1114;-84
2022/05/01 01:05:35;;;;;;;13.90;8.80;;;;;;;7.44;59.97;101745.59;690509;28;1132;-83
2022/05/01 01:05:56;;;;;;;16.13;9.50;;;;;;;7.46;60.09;101756.94;690693;28;748;-83
2022/05/01 01:06:16;;;;;;;14.98;9.43;;;;;;;7.46;60.15;101746.56;690304;28;1293;-83
2022/05/01 01:06:44;;;;;;;15.30;9.70;;;;;;;7.45;60.14;101744.78;688005;28;1247;-83
2022/05/01 01:07:04;;;;;;;11.95;9.07;;;;;;;7.43;60.13;101744.66;693133;28;1123;-83
2022/05/01 01:07:25;;;;;;;11.93;8.90;;;;;;;7.49;59.83;101760.63;693282;28;1155;-83
2022/05/01 01:07:47;;;;;;;11.98;9.05;;;;;;;7.56;60.25;101767.06;696089;28;891;-83
2022/05/01 01:08:07;;;;;;;12.65;9.00;;;;;;;7.55;60.17;101760.06;687821;28;1099;-84
2022/05/01 01:08:28;;;;;;;13.50;9.40;;;;;;;7.57;60.32;101770.53;685130;28;1204;-83
2022/05/01 01:08:49;;;;;;;14.20;9.70;;;;;;;7.47;60.30;101743.16;682538;29;1210;-83
2022/05/01 01:09:11;;;;;;;17.13;9.70;;;;;;;7.49;60.65;101745.03;687794;28;1303;-83
2022/05/01 01:09:31;;;;;;;16.27;9.40;;;;;;;7.54;60.51;101751.38;684688;28;1231;-83
2022/05/01 01:09:52;;;;;;;14.63;9.43;;;;;;;7.57;60.17;101754.97;686613;28;1032;-83
2022/05/01 01:10:13;;;;;;;13.13;9.82;;;;;;;7.60;60.46;101760.31;687868;28;1054;-83
2022/05/01 01:10:35;;;;;;;13.40;10.07;;;;;;;7.62;60.16;101759.59;690682;28;1533;-83
2022/05/01 01:10:55;;;;;;;12.85;9.95;;;;;;;7.64;60.25;101760.59;687998;28;926;-83
2022/05/01 01:11:16;;;;;;;12.60;9.80;;;;;;;7.58;60.49;101742.06;687793;28;1186;-83
2022/05/01 01:11:38;;;;;;;13.07;9.83;;;;;;;7.64;60.37;101752.81;687928;28;823;-83
2022/05/01 01:12:57;;;;;;;16.35;10.65;;;;;;;7.68;60.51;101752.16;684919;28;1325;-83
2022/05/01 01:13:28;;;;;;;16.57;10.30;;;;;;;7.78;60.28;101765.66;682439;29;999;-83
2022/05/01 01:13:49;;;;;;;16.75;10.32;;;;;;;7.78;60.17;101768.25;677086;29;932;-83
2022/05/01 01:14:11;;;;;;;15.25;10.85;;;;;;;7.73;60.16;101751.53;674494;29;1197;-84
2022/05/01 01:14:31;;;;;;;15.75;10.65;;;;;;;7.68;60.45;101749.56;677266;29;852;-83
2022/05/01 01:14:52;;;;;;;15.90;10.47;;;;;;;7.69;60.77;101750.47;677257;29;887;-83
2022/05/01 01:15:13;;;;;;;13.43;9.77;;;;;;;7.72;60.37;101749.72;671955;29;1368;-84
2022/05/01 01:15:35;;;;;;;14.35;10.00;;;;;;;7.73;60.59;101751.53;674635;29;852;-83
2022/05/01 01:15:56;;;;;;;13.18;9.68;;;;;;;7.80;60.29;101771.84;677008;29;1258;-84
2022/05/01 01:16:17;;;;;;;13.25;9.68;;;;;;;7.70;60.38;101746.13;677020;29;1140;-83
2022/05/01 01:16:39;;;;;;;12.50;9.73;;;;;;;7.73;60.94;101757.59;674669;29;1131;-83
2022/05/01 01:16:59;;;;;;;14.30;10.13;;;;;;;7.68;60.63;101743.47;677071;29;1347;-83
2022/05/01 01:17:20;;;;;;;16.17;9.75;;;;;;;7.75;60.78;101762.91;674542;29;1158;-83
2022/05/01 01:17:43;;;;;;;15.32;9.55;;;;;;;7.69;60.52;101747.88;672455;29;1266;-83
2022/05/01 01:18:04;;;;;;;16.02;9.57;;;;;;;7.79;60.51;101767.44;674435;29;1145;-83
2022/05/01 01:18:25;;;;;;;14.70;10.03;;;;;;;7.71;60.60;101750.53;674565;29;1182;-83
2022/05/01 01:18:47;;;;;;;14.23;9.80;;;;;;;7.70;60.78;101752.25;679760;29;1143;-83
2022/05/01 01:19:09;;;;;;;13.23;9.77;;;;;;;7.75;60.27;101760.28;692975;28;1356;-83
2022/05/01 01:19:30;;;;;;;13.32;9.70;;;;;;;7.72;60.26;101752.31;689735;28;1283;-83
2022/05/01 01:19:52;;;;;;;13.43;9.38;;;;;;;7.68;60.72;101748.69;690266;28;1377;-83
2022/05/01 01:20:15;;;;;;;15.40;9.48;;;;;;;7.70;60.07;101751.34;685072;28;1246;-83
2022/05/01 01:20:36;;;;;;;16.60;9.38;;;;;;;7.76;60.20;101768.19;685254;28;1257;-83
2022/05/01 01:20:57;;;;;;;16.77;9.32;;;;;;;7.77;60.60;101769.06;690447;28;1257;-84
2022/05/01 01:21:18;;;;;;;15.23;9.07;;;;;;;7.69;60.61;101753.06;693134;28;1274;-83
2022/05/01 01:21:39;;;;;;;14.63;9.50;;;;;;;7.62;60.68;101749.19;687901;28;1277;-83
2022/05/01 01:21:59;;;;;;;13.52;9.70;;;;;;;7.66;60.62;101756.38;690512;28;993;-83
2022/05/01 01:22:20;;;;;;;13.82;9.93;;;;;;;7.67;60.19;101752.97;693273;28;1128;-83
2022/05/01 01:22:48;;;;;;;15.23;9.90;;;;;;;7.74;60.81;101764.59;695037;28;1274;-83
2022/05/01 01:23:08;;;;;;;16.60;9.50;;;;;;;7.64;60.67;101755.41;687801;28;989;-83
2022/05/01 01:23:29;;;;;;;18.95;9.50;;;;;;;7.68;60.54;101759.94;687885;28;823;-83
2022/05/01 01:23:52;;;;;;;17.80;9.52;;;;;;;7.59;60.35;101746.44;693180;28;1190;-83
2022/05/01 01:24:12;;;;;;;15.48;9.10;;;;;;;7.61;60.10;101751.75;695940;28;1231;-83
2022/05/01 01:24:37;;;;;;;15.32;9.13;;;;;;;7.62;60.65;101761.31;687789;28;1180;-83
2022/05/01 01:24:58;;;;;;;15.05;9.68;;;;;;;7.51;60.56;101742.53;696037;28;1405;-83
2022/05/01 01:25:22;;;;;;;15.25;9.82;;;;;;;7.63;60.24;101771.78;695865;28;1330;-83
2022/05/01 01:25:43;;;;;;;13.90;9.75;;;;;;;7.61;60.34;101773.41;687760;28;1239;-84
2022/05/01 01:26:05;;;;;;;14.57;9.40;;;;;;;7.50;60.21;101761.53;693081;28;1092;-83
2022/05/01 01:26:28;;;;;;;15.48;9.43;;;;;;;7.48;60.84;101752.72;687925;28;787;-83
2022/05/01 01:26:48;;;;;;;16.30;9.25;;;;;;;7.52;60.64;101762.50;690509;28;1343;-83
2022/05/01 01:27:10;;;;;;;14.70;9.07;;;;;;;7.56;60.68;101772.25;687879;28;1006;-83
2022/05/01 01:27:30;;;;;;;13.32;9.15;;;;;;;7.50;60.74;101762.41;690594;28;995;-83
2022/05/01 01:27:54;;;;;;;13.37;9.97;;;;;;;7.50;60.88;101765.00;687787;28;1247;-83
2022/05/01 01:28:15;;;;;;;12.60;9.90;;;;;;;7.50;60.31;101772.78;693325;28;1231;-83
2022/05/01 01:28:41;;;;;;;13.27;9.52;;;;;;;7.45;60.51;101761.25;690666;28;1244;-83
2022/05/01 01:31:40;;;;;;;14.05;9.73;;;;;;;7.48;60.64;101770.91;696021;28;1086;-83
2022/05/01 01:31:44;;;;;;;11.77;9.10;;;;;;;7.25;60.94;101755.81;693041;28;1383;-83
2022/05/01 01:32:06;;;;;;;12.30;9.40;;;;;;;7.36;60.70;101774.59;687698;28;1173;-83
2022/05/01 01:32:29;;;;;;;13.63;10.00;;;;;;;7.30;60.56;101757.78;687760;28;1263;-83
2022/05/01 01:32:50;;;;;;;14.13;10.35;;;;;;;7.35;60.60;101767.63;690602;28;862;-83
2022/05/01 01:33:11;;;;;;;13.70;9.98;;;;;;;7.29;60.79;101759.47;690480;28;980;-84
2022/05/01 01:33:31;;;;;;;13.65;9.65;;;;;;;7.29;60.80;101764.66;693331;28;951;-83
2022/05/01 01:33:57;;;;;;;12.53;9.30;;;;;;;7.22;60.53;101757.31;695617;28;1276;-84
2022/05/01 01:34:21;;;;;;;12.73;9.18;;;;;;;7.27;61.05;101756.78;687656;28;1032;-83
2022/05/01 01:34:43;;;;;;;15.88;9.48;;;;;;;7.33;60.61;101776.13;687987;28;846;-83
2022/05/01 01:35:05;;;;;;;15.65;9.02;;;;;;;7.27;60.86;101761.09;687739;28;1180;-83
2022/05/01 01:35:27;;;;;;;15.98;9.40;;;;;;;7.30;60.96;101766.47;693275;28;1214;-83
2022/05/01 01:35:50;;;;;;;14.48;9.43;;;;;;;7.24;60.75;101754.03;690598;28;909;-83
2022/05/01 01:36:11;;;;;;;14.20;9.23;;;;;;;7.24;60.87;101745.31;687849;28;1046;-83
2022/05/01 01:36:35;;;;;;;12.55;9.63;;;;;;;7.24;60.91;101754.03;687327;28;1332;-83
2022/05/01 01:36:55;;;;;;;12.55;9.70;;;;;;;7.35;60.94;101770.22;687919;28;784;-83
2022/05/01 01:37:16;;;;;;;14.35;9.90;;;;;;;7.24;60.87;101753.13;685032;28;1120;-83
2022/05/01 01:37:37;;;;;;;14.18;9.40;;;;;;;7.29;60.83;101761.19;687917;28;1290;-84
2022/05/01 01:37:58;;;;;;;15.60;9.70;;;;;;;7.32;60.60;101757.06;687848;28;1012;-83
2022/05/01 01:38:19;;;;;;;14.63;9.93;;;;;;;7.37;60.91;101763.41;687875;28;1107;-83
2022/05/01 01:38:40;;;;;;;14.52;10.18;;;;;;;7.35;60.85;101754.63;690558;28;1228;-84
2022/05/01 01:39:01;;;;;;;15.13;10.45;;;;;;;7.34;60.72;101755.44;687868;28;1132;-84
2022/05/01 01:39:23;;;;;;;14.82;10.23;;;;;;;7.36;61.21;101760.72;693154;28;1094;-83
2022/05/01 01:39:45;;;;;;;13.95;10.10;;;;;;;7.32;60.59;101746.69;692883;28;822;-83
2022/05/01 01:40:06;;;;;;;12.50;9.23;;;;;;;7.35;60.70;101749.44;693011;28;1285;-83
2022/05/01 01:40:35;;;;;;;13.52;9.63;;;;;;;7.37;61.17;101763.41;687341;28;1360;-83
2022/05/01 01:40:57;;;;;;;15.40;10.30;;;;;;;7.34;60.72;101751.94;687857;28;866;-83
2022/05/01 01:41:24;;;;;;;14.55;10.45;;;;;;;7.44;60.68;101768.97;687726;28;1261;-84
2022/05/01 01:41:47;;;;;;;12.07;9.90;;;;;;;7.39;60.73;101760.91;682484;29;828;-83
2022/05/01 01:42:11;;;;;;;14.43;9.82;;;;;;;7.45;60.97;101766.47;687796;28;1096;-83
2022/05/01 01:42:34;;;;;;;16.10;10.20;;;;;;;7.47;60.86;101764.84;693185;28;1489;-83
2022/05/01 01:43:00;;;;;;;16.77;10.50;;;;;;;7.44;60.54;101761.16;692995;28;1247;-83
2022/05/01 01:43:28;;;;;;;15.50;10.38;;;;;;;7.45;60.71;101755.16;693194;28;1182;-83
2022/05/01 01:43:49;;;;;;;15.80;10.50;;;;;;;7.44;60.58;101755.97;687400;28;917;-83
2022/05/01 01:44:10;;;;;;;14.63;10.02;;;;;;;7.45;60.74;101760.34;690383;28;1922;-83
2022/05/01 01:44:31;;;;;;;13.18;9.63;;;;;;;7.46;60.50;101763.03;690479;28;1190;-83
2022/05/01 01:44:52;;;;;;;11.57;9.20;;;;;;;7.40;60.43;101754.91;687589;28;1159;-83
2022/05/01 01:45:13;;;;;;;11.70;8.98;;;;;;;7.44;60.73;101758.56;692308;28;1086;-83
2022/05/01 01:45:34;;;;;;;14.40;9.17;;;;;;;7.39;60.29;101756.59;687814;28;1077;-83
2022/05/01 01:45:58;;;;;;;14.40;9.20;;;;;;;7.46;60.72;101763.03;687797;28;1285;-83
2022/05/01 01:46:18;;;;;;;15.05;9.68;;;;;;;7.33;60.90;101745.88;693101;28;1040;-83
2022/05/01 01:46:40;;;;;;;13.70;10.48;;;;;;;7.29;60.51;101743.91;690528;28;1101;-83
2022/05/01 01:47:00;;;;;;;13.95;10.38;;;;;;;7.40;61.07;101768.78;689883;28;1252;-83
2022/05/01 01:47:21;;;;;;;15.55;9.73;;;;;;;7.29;60.57;101754.28;690423;28;1152;-83
2022/05/01 01:47:43;;;;;;;15.30;9.67;;;;;;;7.37;61.08;101763.41;693279;28;1069;-84
2022/05/01 01:48:15;;;;;;;12.85;9.65;;;;;;;7.39;60.88;101760.91;695870;28;1075;-83
2022/05/01 01:48:35;;;;;;;13.00;9.35;;;;;;;7.34;60.73;101752.84;687752;28;1329;-83
2022/05/01 01:48:56;;;;;;;12.90;9.38;;;;;;;7.34;61.14;101746.75;690416;28;1208;-83
2022/05/01 01:49:17;;;;;;;13.20;9.77;;;;;;;7.37;60.81;101760.81;687546;28;1272;-83
2022/05/01 01:49:38;;;;;;;15.07;9.90;;;;;;;7.41;61.12;101759.28;689464;28;1216;-83
2022/05/01 01:49:59;;;;;;;16.42;10.27;;;;;;;7.36;60.83;101756.44;690350;28;1332;-83
2022/05/01 01:50:19;;;;;;;15.38;10.32;;;;;;;7.38;60.71;101760.00;690498;28;1245;-83
2022/05/01 01:50:41;;;;;;;15.37;10.60;;;;;;;7.40;60.65;101758.41;689904;28;1167;-83